Time;durP1;ratioP1;P1;durP2;ratioP2;P2;SDS_P1;SDS_P2;PMS_P1;PMS_P2;Temp;Humidity;BMP_temperature;BMP_pressure;BME280_temperature;BME280_humidity;BME280_pressure;Samples;Min_cycle;Max_cycle;Signal;HPM_P1;HPM_P2
2022/06/29 00:00:15;;;;;;;4.90;2.60;;;;;;;17.44;100.00;101663.28;5085846;28;20031;-78
2022/06/29 00:02:43;;;;;;;5.82;2.78;;;;;;;17.55;100.00;101670.25;5083400;28;20758;-78
2022/06/29 00:05:12;;;;;;;5.15;2.90;;;;;;;17.51;100.00;101666.47;5068738;28;20389;-80
2022/06/29 00:07:39;;;;;;;4.25;2.53;;;;;;;17.39;100.00;101655.06;5066372;28;20489;-77
2022/06/29 00:10:05;;;;;;;4.90;2.63;;;;;;;17.40;100.00;101653.94;5068844;28;20043;-77
2022/06/29 00:12:30;;;;;;;4.03;2.53;;;;;;;17.40;100.00;101646.44;5067729;28;20588;-78
2022/06/29 00:14:56;;;;;;;6.63;2.90;;;;;;;17.39;100.00;101649.53;5064063;28;20220;-77
2022/06/29 00:17:22;;;;;;;3.95;2.55;;;;;;;17.27;100.00;101645.31;5067407;28;20072;-78
2022/06/29 00:19:48;;;;;;;3.08;2.47;;;;;;;17.32;100.00;101647.16;5046877;28;20028;-77
2022/06/29 00:22:14;;;;;;;4.75;3.05;;;;;;;17.23;100.00;101641.53;5048300;28;20024;-78
2022/06/29 00:24:39;;;;;;;5.25;3.00;;;;;;;17.22;100.00;101634.34;5049195;28;20024;-78
2022/06/29 00:27:05;;;;;;;6.22;3.15;;;;;;;17.18;100.00;101633.28;5051326;28;20039;-78
2022/06/29 00:29:31;;;;;;;5.43;2.90;;;;;;;17.27;100.00;101647.28;5048716;28;20524;-77
2022/06/29 00:31:56;;;;;;;7.65;3.47;;;;;;;16.88;100.00;101643.84;5066549;28;20036;-78
2022/06/29 00:34:21;;;;;;;5.28;3.28;;;;;;;17.16;100.00;101646.66;5047633;28;20023;-77
2022/06/29 00:36:47;;;;;;;5.18;3.28;;;;;;;17.24;100.00;101642.34;5047853;28;20035;-77
2022/06/29 00:39:13;;;;;;;5.50;3.20;;;;;;;17.21;100.00;101646.53;5049622;28;20043;-77
2022/06/29 00:41:44;;;;;;;4.50;3.67;;;;;;;17.20;100.00;101639.38;5067266;28;20034;-77
2022/06/29 00:44:17;;;;;;;5.65;3.70;;;;;;;17.17;100.00;101647.50;5048152;28;20126;-76
2022/06/29 00:46:50;;;;;;;9.23;3.70;;;;;;;17.10;100.00;101639.56;5085321;28;20597;-77
2022/06/29 00:49:19;;;;;;;5.55;3.20;;;;;;;17.19;100.00;101637.72;5081278;28;20441;-77
2022/06/29 00:52:05;;;;;;;5.40;3.40;;;;;;;17.21;100.00;101638.22;5064365;28;20019;-77
2022/06/29 00:54:46;;;;;;;4.32;2.95;;;;;;;17.13;100.00;101638.13;5085479;28;20016;-77
2022/06/29 00:57:17;;;;;;;6.03;3.25;;;;;;;17.09;100.00;101632.38;5086337;28;20046;-77
2022/06/29 00:59:45;;;;;;;6.00;3.65;;;;;;;17.08;100.00;101628.78;5063267;28;20242;-77
2022/06/29 01:02:13;;;;;;;4.80;3.13;;;;;;;17.08;100.00;101631.53;5067253;28;20020;-77
2022/06/29 01:04:50;;;;;;;4.78;2.97;;;;;;;17.00;100.00;101625.91;5083304;28;20036;-77
2022/06/29 01:07:18;;;;;;;4.80;3.45;;;;;;;17.00;100.00;101623.94;5064713;28;20043;-76
2022/06/29 01:09:43;;;;;;;4.07;3.55;;;;;;;17.06;100.00;101625.50;5048435;28;20113;-76
2022/06/29 01:12:10;;;;;;;3.40;3.08;;;;;;;16.99;100.00;101618.75;5049748;28;20071;-76
2022/06/29 01:14:35;;;;;;;3.88;3.58;;;;;;;16.98;100.00;101623.44;5082878;28;20040;-76
2022/06/29 01:17:01;;;;;;;5.63;3.60;;;;;;;17.00;100.00;101623.94;5085074;28;20541;-77
2022/06/29 01:19:26;;;;;;;6.40;4.10;;;;;;;17.00;100.00;101620.38;5048451;28;20024;-78
2022/06/29 01:21:53;;;;;;;5.47;3.53;;;;;;;16.99;100.00;101618.75;5062550;28;20028;-77
2022/06/29 01:24:21;;;;;;;5.00;3.55;;;;;;;16.89;100.00;101625.31;5068041;28;20107;-76
2022/06/29 01:26:46;;;;;;;7.53;3.90;;;;;;;16.94;100.00;101629.91;5049253;28;20039;-76
2022/06/29 01:29:12;;;;;;;5.80;4.30;;;;;;;16.86;100.00;101626.72;5064809;28;20024;-77
2022/06/29 01:31:37;;;;;;;7.28;4.25;;;;;;;16.83;100.00;101604.34;5065915;28;20413;-77
2022/06/29 01:34:03;;;;;;;7.03;4.13;;;;;;;16.79;100.00;101623.50;5069479;28;20032;-77
2022/06/29 01:36:28;;;;;;;4.90;3.90;;;;;;;16.77;100.00;101619.38;5048767;28;20141;-77
2022/06/29 01:38:54;;;;;;;5.40;3.92;;;;;;;16.80;100.00;101616.00;5064336;28;20497;-76
2022/06/29 01:41:19;;;;;;;7.50;4.50;;;;;;;16.69;100.00;101610.69;5083360;28;20432;-76
2022/06/29 01:43:45;;;;;;;4.68;3.92;;;;;;;16.65;100.00;101609.63;5083836;28;20447;-77
2022/06/29 01:46:10;;;;;;;8.48;3.90;;;;;;;16.64;100.00;101610.78;5062884;28;20068;-76
2022/06/29 01:48:36;;;;;;;6.95;4.50;;;;;;;16.64;100.00;101618.22;5031348;28;20027;-76
2022/06/29 01:51:01;;;;;;;9.80;4.20;;;;;;;16.60;100.00;101606.16;5062289;28;20048;-77
2022/06/29 01:53:27;;;;;;;5.38;3.83;;;;;;;16.59;100.00;101607.25;5084147;28;20231;-77
2022/06/29 01:55:53;;;;;;;4.97;4.10;;;;;;;16.62;100.00;101609.41;5063451;28;20073;-77
2022/06/29 01:58:18;;;;;;;4.65;4.18;;;;;;;16.54;100.00;101599.88;5048570;28;20048;-76
2022/06/29 02:00:47;;;;;;;5.03;4.18;;;;;;;16.53;100.00;101589.94;5064045;28;20038;-77
2022/06/29 02:03:12;;;;;;;4.75;4.28;;;;;;;16.51;100.00;101593.00;5062610;28;20470;-77
2022/06/29 02:05:38;;;;;;;7.18;4.65;;;;;;;16.47;100.00;101588.38;5081279;28;20046;-77
2022/06/29 02:08:04;;;;;;;5.47;4.40;;;;;;;16.37;100.00;101585.78;5048034;28;20379;-77
2022/06/29 02:10:30;;;;;;;5.43;4.60;;;;;;;16.35;100.00;101580.56;5081351;28;20525;-76
2022/06/29 02:12:55;;;;;;;5.88;4.47;;;;;;;16.34;100.00;101570.59;5064861;28;20375;-77
2022/06/29 02:15:23;;;;;;;7.45;4.47;;;;;;;16.34;100.00;101573.38;5080791;28;20024;-78
2022/06/29 02:17:49;;;;;;;4.90;4.22;;;;;;;16.32;100.00;101570.09;5080230;28;20816;-75
2022/06/29 02:20:16;;;;;;;7.32;4.65;;;;;;;16.27;100.00;101567.41;5047657;28;20028;-76
2022/06/29 02:22:42;;;;;;;4.68;4.20;;;;;;;16.23;100.00;101556.13;5065809;28;20055;-76
2022/06/29 02:25:09;;;;;;;6.95;5.03;;;;;;;16.16;100.00;101556.50;5065188;28;20066;-77
2022/06/29 02:27:41;;;;;;;5.80;4.68;;;;;;;16.02;100.00;101546.53;5065490;28;20077;-76
2022/06/29 02:30:09;;;;;;;5.13;4.63;;;;;;;15.95;100.00;101530.31;5080467;28;20327;-76
2022/06/29 02:35:20;;;;;;;5.22;4.55;;;;;;;15.92;100.00;101525.38;5081357;28;20035;-76
2022/06/29 02:37:50;;;;;;;6.65;4.80;;;;;;;15.96;100.00;101521.72;5065750;28;20036;-79
2022/06/29 02:40:16;;;;;;;5.05;4.57;;;;;;;15.96;100.00;101512.63;5065372;28;20020;-76
2022/06/29 02:42:41;;;;;;;5.13;4.63;;;;;;;15.96;100.00;101518.16;5047410;28;20039;-76
2022/06/29 02:45:08;;;;;;;5.18;4.63;;;;;;;15.91;100.00;101515.47;5080257;28;20032;-77
2022/06/29 02:47:37;;;;;;;6.03;4.47;;;;;;;15.89;100.00;101506.63;5047435;28;20059;-77
2022/06/29 02:50:03;;;;;;;6.22;4.60;;;;;;;15.82;100.00;101501.50;5046764;28;20161;-77
2022/06/29 02:52:28;;;;;;;5.22;4.63;;;;;;;15.77;100.00;101498.81;5030535;28;20171;-76
2022/06/29 02:54:54;;;;;;;5.28;4.20;;;;;;;15.73;100.00;101486.69;5063640;28;20036;-76
2022/06/29 02:57:20;;;;;;;10.07;5.22;;;;;;;15.71;100.00;101488.94;5047744;28;20047;-76
2022/06/29 02:59:46;;;;;;;5.60;4.43;;;;;;;15.70;100.00;101487.31;5079697;28;20176;-76
2022/06/29 03:02:11;;;;;;;5.80;4.97;;;;;;;15.58;100.00;101474.75;5081862;28;20149;-75
2022/06/29 03:04:37;;;;;;;5.68;5.15;;;;;;;15.54;100.00;101470.94;5044691;28;20387;-77
2022/06/29 03:07:03;;;;;;;7.43;5.25;;;;;;;15.48;100.00;101466.63;5043913;28;20046;-77
2022/06/29 03:09:28;;;;;;;5.38;4.88;;;;;;;15.53;100.00;101461.03;5063531;28;20097;-77
2022/06/29 03:11:55;;;;;;;6.03;5.07;;;;;;;15.54;100.00;101459.88;5061598;28;20032;-77
2022/06/29 03:14:20;;;;;;;6.10;5.18;;;;;;;15.57;100.00;101450.19;5045711;28;20591;-76
2022/06/29 03:16:46;;;;;;;7.05;5.13;;;;;;;15.52;100.00;101442.78;5030389;28;20039;-77
2022/06/29 03:19:11;;;;;;;5.55;5.03;;;;;;;15.55;100.00;101431.16;5025979;28;20458;-76
2022/06/29 03:21:37;;;;;;;5.90;5.30;;;;;;;15.48;100.00;101427.97;5061698;28;20507;-76
2022/06/29 03:24:03;;;;;;;5.78;5.18;;;;;;;15.41;100.00;101433.03;5046400;28;20093;-77
2022/06/29 03:26:30;;;;;;;7.07;5.90;;;;;;;15.38;100.00;101411.53;5049485;28;20431;-76
2022/06/29 03:29:03;;;;;;;5.50;4.95;;;;;;;15.37;100.00;101396.91;5063302;28;20024;-76
2022/06/29 03:31:30;;;;;;;6.18;5.28;;;;;;;15.34;100.00;101364.34;5047404;28;20029;-76
2022/06/29 03:33:59;;;;;;;6.78;5.50;;;;;;;15.34;100.00;101336.72;5060480;28;20059;-76
2022/06/29 03:36:24;;;;;;;6.18;5.35;;;;;;;15.35;100.00;101307.16;5045656;28;20033;-78
2022/06/29 03:38:50;;;;;;;6.88;5.57;;;;;;;15.31;100.00;101279.31;5049631;28;20452;-77
2022/06/29 03:41:15;;;;;;;8.15;5.43;;;;;;;15.39;100.00;101270.31;5029525;28;20397;-77
2022/06/29 03:43:40;;;;;;;6.10;4.97;;;;;;;15.44;100.00;101256.41;5047137;28;20024;-76
2022/06/29 03:46:06;;;;;;;6.05;5.45;;;;;;;15.44;100.00;101266.66;5044562;28;20043;-76
2022/06/29 03:48:31;;;;;;;7.32;5.30;;;;;;;15.38;100.00;101262.31;5045465;28;20032;-77
2022/06/29 03:50:57;;;;;;;8.68;5.25;;;;;;;15.40;100.00;101260.09;5060838;28;20143;-76
2022/06/29 03:53:22;;;;;;;7.00;5.65;;;;;;;15.44;100.00;101256.41;5064189;28;20028;-75
2022/06/29 03:55:47;;;;;;;8.10;6.00;;;;;;;15.45;100.00;101257.25;5063765;28;20028;-76
2022/06/29 03:58:13;;;;;;;6.55;5.88;;;;;;;15.47;100.00;101259.69;5029632;28;20513;-76
2022/06/29 04:00:38;;;;;;;6.10;5.50;;;;;;;15.47;100.00;101252.22;5046013;28;20508;-76
2022/06/29 04:03:03;;;;;;;6.47;5.80;;;;;;;15.50;100.00;101262.66;5060651;28;20110;-75
2022/06/29 04:05:29;;;;;;;7.20;5.90;;;;;;;15.52;100.00;101259.59;5062601;28;20059;-75
2022/06/29 04:07:58;;;;;;;6.90;6.00;;;;;;;15.57;100.00;101256.75;5063843;28;20486;-76
2022/06/29 04:10:24;;;;;;;6.80;5.95;;;;;;;15.59;100.00;101248.94;5051905;28;20016;-75
2022/06/29 04:12:49;;;;;;;7.00;5.63;;;;;;;15.61;100.00;101252.25;5050348;28;20565;-75
2022/06/29 04:15:15;;;;;;;8.82;5.93;;;;;;;15.63;100.00;101255.53;5047849;28;20769;-75
2022/06/29 04:17:40;;;;;;;7.00;6.30;;;;;;;15.58;100.00;101261.97;5082849;28;20023;-76
2022/06/29 04:20:06;;;;;;;6.60;5.90;;;;;;;15.70;100.00;101258.69;5065288;28;20055;-75
2022/06/29 04:22:32;;;;;;;9.27;5.82;;;;;;;15.66;100.00;101257.69;5066094;28;20035;-76
2022/06/29 04:24:59;;;;;;;7.15;5.60;;;;;;;15.78;100.00;101255.25;5067357;28;20099;-76
2022/06/29 04:27:25;;;;;;;6.50;5.82;;;;;;;15.86;100.00;101250.13;5050406;28;20378;-76
2022/06/29 04:29:50;;;;;;;8.13;6.70;;;;;;;15.89;100.00;101260.56;5067136;28;20043;-75
2022/06/29 04:32:16;;;;;;;6.82;6.13;;;;;;;15.97;100.00;101257.06;5049649;28;20103;-76
2022/06/29 04:34:43;;;;;;;8.80;5.97;;;;;;;16.01;100.00;101243.47;5064459;28;20278;-76
2022/06/29 04:37:09;;;;;;;8.38;6.88;;;;;;;15.98;100.00;101254.00;5080990;28;20128;-75
2022/06/29 04:39:34;;;;;;;6.85;6.30;;;;;;;16.06;100.00;101243.34;5086316;28;20055;-76
2022/06/29 04:42:02;;;;;;;7.55;6.80;;;;;;;16.00;100.00;101245.38;5066337;28;20035;-76
2022/06/29 04:44:28;;;;;;;7.80;6.88;;;;;;;16.13;100.00;101243.72;5067933;28;20031;-76
2022/06/29 04:46:54;;;;;;;7.20;6.07;;;;;;;16.24;100.00;101238.81;5067894;28;20024;-75
2022/06/29 04:49:19;;;;;;;7.80;6.88;;;;;;;16.15;100.00;101236.78;5082899;28;20194;-76
2022/06/29 04:51:45;;;;;;;7.88;7.18;;;;;;;16.17;100.00;101240.03;5066663;28;20080;-77
2022/06/29 04:54:10;;;;;;;9.00;7.10;;;;;;;16.46;100.00;101229.72;5065112;28;20088;-76
2022/06/29 04:56:36;;;;;;;7.72;6.80;;;;;;;16.47;100.00;101232.16;5064970;28;20143;-76
2022/06/29 04:59:03;;;;;;;7.88;7.07;;;;;;;16.54;100.00;101231.72;5062201;28;20032;-76
2022/06/29 05:01:30;;;;;;;8.75;7.85;;;;;;;16.62;100.00;101228.22;5062957;28;20094;-75
2022/06/29 05:03:56;;;;;;;7.35;6.65;;;;;;;16.72;100.00;101227.16;5059891;28;20020;-75
2022/06/29 05:06:22;;;;;;;8.02;7.22;;;;;;;16.79;100.00;101233.09;5060990;28;20489;-75
2022/06/29 05:08:51;;;;;;;8.52;7.65;;;;;;;16.78;100.00;101242.50;5047493;28;20024;-76
2022/06/29 05:11:18;;;;;;;9.55;8.00;;;;;;;16.86;100.00;101249.28;5064558;28;20040;-75
2022/06/29 05:13:46;;;;;;;10.95;7.78;;;;;;;16.92;100.00;101263.81;5064366;28;20104;-76
2022/06/29 05:16:12;;;;;;;8.57;7.78;;;;;;;16.97;100.00;101267.28;5061670;28;20112;-76
2022/06/29 05:18:38;;;;;;;8.95;8.15;;;;;;;16.99;100.00;101269.75;5062797;28;20497;-77
2022/06/29 05:21:06;;;;;;;9.48;8.20;;;;;;;17.00;100.00;101266.63;5060627;28;20115;-76
2022/06/29 05:23:32;;;;;;;9.75;8.57;;;;;;;17.14;100.00;101272.13;5062013;28;20079;-75
2022/06/29 05:25:57;;;;;;;11.57;8.80;;;;;;;17.17;100.00;101265.94;5064721;28;20482;-76
2022/06/29 05:28:23;;;;;;;9.63;8.63;;;;;;;17.09;100.00;101277.78;5063954;28;20545;-77
2022/06/29 05:30:50;;;;;;;9.75;8.90;;;;;;;17.13;100.00;101316.75;5063076;28;20506;-77
2022/06/29 05:33:16;;;;;;;9.75;8.80;;;;;;;17.36;100.00;101328.66;5044715;28;20028;-76
2022/06/29 05:35:41;;;;;;;9.07;8.18;;;;;;;17.49;100.00;101338.03;5064153;28;20017;-77
2022/06/29 05:38:10;;;;;;;9.80;8.85;;;;;;;17.60;100.00;101356.84;5045740;28;20043;-75
2022/06/29 05:40:37;;;;;;;9.00;8.23;;;;;;;17.85;100.00;101373.13;5065051;28;20031;-76
2022/06/29 05:43:03;;;;;;;10.15;9.25;;;;;;;17.91;100.00;101372.69;5063403;28;20118;-77
2022/06/29 05:45:29;;;;;;;9.75;8.95;;;;;;;17.81;100.00;101378.50;5060739;28;20525;-78
2022/06/29 05:47:55;;;;;;;10.50;9.35;;;;;;;17.95;100.00;101382.00;5062565;28;20043;-77
2022/06/29 05:50:22;;;;;;;9.40;8.40;;;;;;;18.07;100.00;101400.00;5059374;28;20016;-75
2022/06/29 05:52:47;;;;;;;10.13;9.23;;;;;;;18.13;100.00;101407.88;5064623;28;20312;-77
2022/06/29 05:55:13;;;;;;;9.82;8.85;;;;;;;18.20;100.00;101418.53;5064532;28;20048;-77
2022/06/29 05:57:39;;;;;;;10.63;9.07;;;;;;;18.27;100.00;101426.41;5046701;28;20064;-76
2022/06/29 06:00:06;;;;;;;9.23;8.30;;;;;;;18.42;100.00;101425.13;5060674;28;20033;-76
2022/06/29 06:02:41;;;;;;;9.82;8.80;;;;;;;18.51;100.00;101435.13;5043796;28;20377;-77
2022/06/29 06:05:18;;;;;;;10.68;9.23;;;;;;;18.37;100.00;101440.78;5064534;28;20363;-77
2022/06/29 06:07:43;;;;;;;11.05;9.88;;;;;;;18.59;100.00;101435.47;5063478;28;20513;-77
2022/06/29 06:10:10;;;;;;;9.02;8.23;;;;;;;18.62;100.00;101434.84;5046569;28;20024;-76
2022/06/29 06:12:35;;;;;;;11.48;10.18;;;;;;;18.67;100.00;101438.25;5060584;28;20047;-76
2022/06/29 06:15:01;;;;;;;9.40;8.60;;;;;;;18.82;100.00;101437.00;5043925;28;20486;-78
2022/06/29 06:17:29;;;;;;;10.23;9.32;;;;;;;18.86;100.00;101434.44;5061683;28;20212;-77
2022/06/29 06:19:56;;;;;;;10.82;9.75;;;;;;;18.97;100.00;101434.94;5060273;28;20207;-77
2022/06/29 06:22:21;;;;;;;12.15;10.20;;;;;;;19.14;100.00;101439.69;5027107;28;20116;-77
2022/06/29 06:24:47;;;;;;;10.52;9.60;;;;;;;19.19;100.00;101447.88;5063255;28;20107;-77
2022/06/29 06:27:14;;;;;;;9.77;8.88;;;;;;;19.33;100.00;101456.84;5063107;28;20032;-76
2022/06/29 06:29:39;;;;;;;8.63;7.72;;;;;;;19.47;100.00;101459.47;5060395;28;20054;-76
2022/06/29 06:32:05;;;;;;;9.40;8.52;;;;;;;19.54;100.00;101467.31;5064375;28;20036;-77
2022/06/29 06:34:31;;;;;;;10.32;9.27;;;;;;;19.56;100.00;101484.50;5059004;28;20211;-77
2022/06/29 06:36:59;;;;;;;10.63;9.48;;;;;;;19.69;100.00;101483.50;5063866;28;20075;-78
2022/06/29 06:39:24;;;;;;;10.13;9.10;;;;;;;19.66;100.00;101481.41;5061643;28;20020;-77
2022/06/29 06:41:50;;;;;;;11.07;8.88;;;;;;;19.78;100.00;101481.56;5062544;28;20024;-76
2022/06/29 06:44:15;;;;;;;9.63;8.80;;;;;;;19.89;100.00;101487.63;5060741;28;20175;-77
2022/06/29 06:46:41;;;;;;;10.07;9.05;;;;;;;20.07;100.00;101491.19;5065107;28;20540;-77
2022/06/29 06:49:08;;;;;;;10.77;9.35;;;;;;;20.16;100.00;101486.41;5062142;28;20051;-78
2022/06/29 06:51:33;;;;;;;10.70;9.63;;;;;;;20.20;100.00;101489.31;5064444;28;20089;-78
2022/06/29 06:53:58;;;;;;;11.25;8.88;;;;;;;20.31;100.00;101487.81;5048722;28;20478;-77
2022/06/29 06:56:24;;;;;;;10.07;9.18;;;;;;;20.50;100.00;101481.84;5051595;28;20048;-78
2022/06/29 06:58:49;;;;;;;10.48;8.93;;;;;;;20.54;100.00;101484.78;5067642;28;20514;-78
2022/06/29 07:01:15;;;;;;;9.68;8.55;;;;;;;20.79;100.00;101480.28;5050551;28;20063;-76
2022/06/29 07:03:40;;;;;;;10.18;9.27;;;;;;;20.77;100.00;101481.75;5066871;28;20036;-77
2022/06/29 07:06:07;;;;;;;10.05;9.13;;;;;;;20.90;100.00;101492.66;5069324;28;20085;-78
2022/06/29 07:08:35;;;;;;;10.10;9.10;;;;;;;20.64;100.00;101491.97;5070324;28;20039;-79
2022/06/29 07:11:01;;;;;;;9.32;8.50;;;;;;;20.72;100.00;101485.56;5089965;28;20031;-78
2022/06/29 07:13:27;;;;;;;9.60;7.90;;;;;;;20.86;100.00;101480.56;5088185;28;20289;-77
2022/06/29 07:15:53;;;;;;;10.10;9.00;;;;;;;21.10;100.00;101487.44;5069550;28;20109;-78
2022/06/29 07:18:19;;;;;;;9.52;8.00;;;;;;;21.35;100.00;101485.66;5066343;28;20088;-77
2022/06/29 07:20:45;;;;;;;8.88;7.88;;;;;;;21.49;100.00;101485.38;5088195;28;20036;-78
2022/06/29 07:23:10;;;;;;;10.00;9.07;;;;;;;21.50;100.00;101480.59;5052008;28;20377;-78
2022/06/29 07:25:36;;;;;;;10.10;9.15;;;;;;;21.55;100.00;101478.44;5069312;28;20031;-78
2022/06/29 07:28:02;;;;;;;9.52;8.63;;;;;;;21.66;100.00;101488.03;5086355;28;20517;-78
2022/06/29 07:30:27;;;;;;;7.82;7.13;;;;;;;21.90;100.00;101485.66;5029465;28;20028;-78
2022/06/29 07:32:52;;;;;;;9.43;8.48;;;;;;;22.00;100.00;101483.25;5066491;28;20051;-78
2022/06/29 07:35:21;;;;;;;8.13;7.35;;;;;;;22.10;100.00;101478.38;5032143;28;20386;-77
2022/06/29 07:37:46;;;;;;;9.13;8.23;;;;;;;22.13;100.00;101484.09;5051187;28;20063;-78
2022/06/29 07:40:22;;;;;;;9.32;7.38;;;;;;;22.26;100.00;101484.13;5049932;28;20055;-78
2022/06/29 07:42:48;;;;;;;8.25;7.45;;;;;;;22.49;100.00;101488.13;5085665;28;20058;-79
2022/06/29 07:45:16;;;;;;;8.00;7.20;;;;;;;22.79;100.00;101484.31;5065415;28;20474;-77
2022/06/29 07:47:41;;;;;;;8.77;7.00;;;;;;;23.17;100.00;101483.94;5067840;28;20032;-79
2022/06/29 07:50:28;;;;;;;8.38;7.40;;;;;;;23.09;100.00;101482.91;5053361;28;20409;-79
2022/06/29 07:52:53;;;;;;;7.68;5.95;;;;;;;23.21;100.00;101484.03;5071065;28;20031;-79
2022/06/29 07:55:21;;;;;;;7.50;6.70;;;;;;;23.25;100.00;101496.16;5086853;28;20024;-77
2022/06/29 07:57:47;;;;;;;8.20;6.85;;;;;;;23.52;100.00;101482.56;5086305;28;20131;-77
2022/06/29 08:00:13;;;;;;;7.47;6.68;;;;;;;23.73;100.00;101502.75;5053748;28;20501;-77
2022/06/29 08:02:39;;;;;;;8.13;6.97;;;;;;;23.74;100.00;101495.16;5066695;28;20355;-77
2022/06/29 08:05:05;;;;;;;12.23;7.32;;;;;;;23.76;100.00;101488.06;5087686;28;20036;-76
2022/06/29 08:07:30;;;;;;;6.80;5.75;;;;;;;23.77;100.00;101498.06;5084528;28;20085;-78
2022/06/29 08:09:56;;;;;;;6.82;5.30;;;;;;;24.24;100.00;101496.56;5069115;28;20410;-78
2022/06/29 08:12:21;;;;;;;9.75;5.85;;;;;;;24.32;100.00;101494.78;5086647;28;20054;-78
2022/06/29 08:14:46;;;;;;;8.05;5.65;;;;;;;24.52;100.00;101499.28;5067214;28;20077;-77
2022/06/29 08:17:12;;;;;;;6.93;5.75;;;;;;;24.72;100.00;101499.41;5068965;28;20036;-77
2022/06/29 08:19:38;;;;;;;9.57;6.57;;;;;;;24.79;100.00;101488.34;5065167;28;20032;-78
2022/06/29 08:22:03;;;;;;;5.93;4.82;;;;;;;24.75;100.00;101488.25;5085484;28;20382;-78
2022/06/29 08:24:28;;;;;;;9.70;5.53;;;;;;;25.13;100.00;101485.91;5050522;28;20035;-77
2022/06/29 08:26:54;;;;;;;5.22;4.38;;;;;;;25.40;100.00;101480.50;5068604;28;20036;-77
2022/06/29 08:29:20;;;;;;;7.00;5.20;;;;;;;25.43;100.00;101485.38;5084477;28;20019;-78
2022/06/29 08:31:46;;;;;;;7.63;4.72;;;;;;;25.43;100.00;101488.19;5069770;28;20157;-77
2022/06/29 08:34:13;;;;;;;5.10;4.60;;;;;;;25.75;100.00;101482.44;5066005;28;20115;-78
2022/06/29 08:36:38;;;;;;;8.77;4.75;;;;;;;25.79;100.00;101477.69;5033253;28;20391;-78
2022/06/29 08:39:04;;;;;;;8.40;4.78;;;;;;;25.62;100.00;101476.16;5050915;28;20181;-78
2022/06/29 08:41:30;;;;;;;4.90;3.88;;;;;;;25.95;100.00;101480.41;5050466;28;20070;-78
2022/06/29 08:44:10;;;;;;;8.38;4.07;;;;;;;26.26;100.00;101484.22;5068962;28;20139;-79
2022/06/29 08:46:35;;;;;;;6.38;4.32;;;;;;;26.30;100.00;101479.44;5067805;28;20132;-77
2022/06/29 08:49:02;;;;;;;5.55;3.55;;;;;;;26.27;100.00;101471.75;5032538;28;20148;-79
2022/06/29 08:51:33;;;;;;;5.63;4.03;;;;;;;26.51;100.00;101477.00;5048686;28;20115;-78
2022/06/29 08:54:01;;;;;;;6.32;3.53;;;;;;;26.52;100.00;101477.81;5066864;28;20132;-78
2022/06/29 08:56:27;;;;;;;5.03;3.20;;;;;;;26.48;100.00;101480.59;5086110;28;20313;-78
2022/06/29 08:59:04;;;;;;;5.88;4.10;;;;;;;26.58;100.00;101473.47;5066154;28;20124;-78
2022/06/29 09:01:29;;;;;;;6.47;4.20;;;;;;;27.11;100.00;101478.34;5049040;28;20023;-78
2022/06/29 09:03:55;;;;;;;8.48;3.78;;;;;;;27.19;100.00;101479.22;5043982;28;20035;-78
2022/06/29 09:06:27;;;;;;;5.82;2.97;;;;;;;27.27;100.00;101464.06;5064503;28;20024;-77
2022/06/29 09:08:52;;;;;;;5.40;3.03;;;;;;;27.31;100.00;101471.38;5085925;28;20333;-78
2022/06/29 09:11:28;;;;;;;8.45;2.88;;;;;;;27.46;100.00;101465.94;5067862;28;20470;-77
2022/06/29 09:14:13;;;;;;;8.20;2.65;;;;;;;27.68;100.00;101465.00;5067633;28;20035;-78
2022/06/29 09:17:05;;;;;;;4.10;2.47;;;;;;;27.84;100.00;101458.31;5083467;28;20440;-77
2022/06/29 09:19:37;;;;;;;5.18;2.28;;;;;;;27.90;100.00;101462.41;5060021;28;20036;-78
2022/06/29 09:22:03;;;;;;;4.22;2.28;;;;;;;28.07;100.00;101463.81;5069215;28;20032;-78
2022/06/29 09:24:31;;;;;;;4.90;2.17;;;;;;;28.39;100.00;101460.47;5047538;28;20414;-79
2022/06/29 09:27:02;;;;;;;2.50;2.25;;;;;;;28.33;100.00;101462.84;5065959;28;20027;-78
2022/06/29 09:29:31;;;;;;;2.75;2.47;;;;;;;28.34;100.00;101460.84;5080317;28;20028;-78
2022/06/29 09:32:05;;;;;;;2.65;2.15;;;;;;;28.47;97.63;101455.72;5084321;28;20112;-78
2022/06/29 09:34:31;;;;;;;3.53;1.98;;;;;;;28.64;98.88;101457.88;5060914;28;20089;-79
2022/06/29 09:36:59;;;;;;;4.07;2.10;;;;;;;28.69;96.47;101457.50;5064097;28;20024;-77
2022/06/29 09:39:37;;;;;;;4.15;2.10;;;;;;;28.93;96.63;101456.03;5064925;28;20051;-78
2022/06/29 09:42:27;;;;;;;4.18;2.00;;;;;;;28.51;96.13;101457.34;5064387;28;20413;-77
2022/06/29 09:44:53;;;;;;;4.00;2.30;;;;;;;28.83;98.30;101459.63;5050743;28;20494;-78
2022/06/29 09:47:20;;;;;;;3.40;1.70;;;;;;;28.78;96.98;101460.00;5065980;28;20039;-78
2022/06/29 09:49:53;;;;;;;4.07;2.38;;;;;;;28.82;95.69;101451.53;5062832;28;20028;-79
2022/06/29 09:52:19;;;;;;;5.18;2.95;;;;;;;28.85;96.50;101460.03;5081965;28;20031;-77
2022/06/29 09:54:55;;;;;;;3.47;1.95;;;;;;;28.74;93.95;101453.50;5048448;28;20300;-77
2022/06/29 09:57:29;;;;;;;3.78;1.90;;;;;;;29.14;93.89;101455.34;5066205;28;20194;-77
2022/06/29 10:02:50;;;;;;;6.80;1.77;;;;;;;29.44;95.29;101457.13;5067176;28;20603;-77
2022/06/29 10:05:20;;;;;;;4.75;2.00;;;;;;;29.51;91.62;101450.69;5064837;28;20113;-77
2022/06/29 10:07:51;;;;;;;4.32;1.58;;;;;;;29.10;93.29;101453.72;5065775;28;20126;-77
2022/06/29 10:10:33;;;;;;;5.43;1.65;;;;;;;29.36;91.42;101451.84;5064957;28;20100;-78
2022/06/29 10:16:00;;;;;;;4.53;1.90;;;;;;;29.75;89.53;101446.31;5080819;28;20184;-77
2022/06/29 10:18:53;;;;;;;2.80;1.70;;;;;;;29.95;89.99;101441.13;5064814;28;20104;-78
2022/06/29 10:21:30;;;;;;;4.68;1.63;;;;;;;30.26;88.90;101435.91;5062371;28;20020;-78
2022/06/29 10:23:59;;;;;;;2.10;1.60;;;;;;;31.03;89.76;101438.25;5064552;28;20032;-78
2022/06/29 10:26:32;;;;;;;3.22;1.63;;;;;;;30.87;88.27;101435.03;5065737;28;20020;-78
2022/06/29 10:29:10;;;;;;;;;;;;;;;28.69;89.41;101436.94;5064330;28;20115;-77
2022/06/29 10:31:59;;;;;;;2.83;1.52;;;;;;;29.24;88.75;101425.59;5081147;28;20297;-78
2022/06/29 10:34:34;;;;;;;2.60;1.60;;;;;;;30.00;88.75;101426.59;5053419;28;20451;-77
2022/06/29 10:37:03;;;;;;;5.40;1.48;;;;;;;30.47;88.29;101420.13;5059216;28;20035;-78
2022/06/29 10:39:48;;;;;;;6.72;1.80;;;;;;;30.04;83.34;101420.94;5063244;28;20027;-77
2022/06/29 10:45:18;;;;;;;4.13;1.80;;;;;;;30.94;84.66;101413.19;5079071;28;20116;-77
2022/06/29 10:47:45;;;;;;;2.22;1.50;;;;;;;30.87;86.36;101415.22;5063324;28;20359;-78
2022/06/29 10:50:21;;;;;;;5.72;3.08;;;;;;;30.92;89.63;101428.94;5064659;28;20012;-77
2022/06/29 10:52:48;;;;;;;4.57;3.92;;;;;;;28.66;99.52;101426.44;5062584;28;20272;-78
2022/06/29 10:55:15;;;;;;;7.95;5.00;;;;;;;27.72;100.00;101433.25;5064952;28;20071;-77
2022/06/29 10:57:42;;;;;;;7.47;5.40;;;;;;;27.42;100.00;101446.19;5063233;28;20071;-78
2022/06/29 11:00:29;;;;;;;9.07;6.45;;;;;;;26.14;100.00;101454.31;5063387;28;20059;-76
2022/06/29 11:02:55;;;;;;;8.20;6.07;;;;;;;25.53;100.00;101453.09;5079649;28;20039;-78
2022/06/29 11:05:20;;;;;;;7.68;6.53;;;;;;;25.40;100.00;101444.00;5063536;28;20031;-77
2022/06/29 11:13:26;;;;;;;7.35;4.35;;;;;;;25.55;100.00;101437.53;5053353;28;20148;-76
2022/06/29 11:15:54;;;;;;;6.68;4.53;;;;;;;24.97;100.00;101441.06;5062904;28;20058;-77
2022/06/29 11:18:29;;;;;;;8.55;4.47;;;;;;;25.63;100.00;101435.66;5085064;28;20510;-76
2022/06/29 11:21:02;;;;;;;5.53;3.58;;;;;;;25.57;100.00;101445.59;5065369;28;20553;-75
2022/06/29 11:23:32;;;;;;;8.35;4.50;;;;;;;25.26;100.00;101445.31;5088531;28;20547;-77
2022/06/29 11:25:58;;;;;;;7.18;4.22;;;;;;;23.87;100.00;101459.56;5087440;28;20036;-76
2022/06/29 11:28:29;;;;;;;8.85;4.70;;;;;;;23.90;100.00;101461.66;5086937;28;20034;-79
2022/06/29 11:30:59;;;;;;;8.63;4.10;;;;;;;24.12;100.00;101461.06;5083572;28;20524;-76
2022/06/29 11:33:27;;;;;;;5.55;3.28;;;;;;;23.90;100.00;101467.25;5068152;28;20476;-77
2022/06/29 11:35:54;;;;;;;8.40;3.17;;;;;;;24.51;100.00;101454.81;5084233;28;20024;-77